Forside
METAR-TAF:

METAR-TAF

Lufthavne :

O.R. Tambo International Airport

Johannesburg, Sydafrika

Breddekreds: 26-08S, længdekreds: 028-14E, højde: 1694 m

Aktuelle vejr

Denne rapport blev lavet for 47 minutter siden, kl. 02:00 UTC
Vind 8 kt fra nordnordvest
Temperatur 16°C
Fugtighed 36%
Tryk 1027 hPa
Sigt 10 km eller mere
ingen skyer under 1500m og ingen cumulonimbus

METAR: FAOR 160200Z 33008KT CAVOK 16/01 Q1027 NOSIG

Tid: 04:47 (02:47 UTC)

Vejrudsigter

Denne rapport blev lavet for 4 timer og 47 minutter siden, kl. 22:00 UTC
Foreløbig gælder fra 16 på 00 UTC til 17 på 06 UTC
Vind 7 kt fra nord
Sigt 10 km eller mere
ingen skyer under 1500m og ingen cumulonimbus
ændring
fra 16 på 06 UTC til 16 på 08 UTC
Vind 14 kt fra nordvest
Fra 16 på 1630 UTC
Vind 7 kt fra nord
Sigt 10 km eller mere
ingen skyer under 1500m og ingen cumulonimbus

TAF: FAOR 152200Z 1600/1706 01007KT CAVOK BECMG 1606/1608 31014KT FM161630 35007KT CAVOK TX24/1612Z TN13/1704Z

Vejrobservationer og prognoser fra mere end 4000 lufthavne (METAR og TAF).

De gule og røde prikker repræsenterer de meteorologiske stationer.

Flyt musen over at se navnet på stationen.

Så klik over at se vejr observationer og prognoser.

At skifte det kort: Klik på de grønne knapper med et sort kors for at zoome ind; på den grønne knap med en bindestreg for at zoome ud; eller på de grønne pile for tilstødende kort.


METAR-TAF: